createdAt,value
2023-03-11T00:00:47.441Z,44.70
2023-03-11T00:03:18.188Z,44.80
2023-03-11T00:05:47.631Z,45.00
2023-03-11T00:08:21.817Z,44.80
2023-03-11T00:10:54.694Z,45.50
2023-03-11T00:13:23.650Z,45.10
2023-03-11T00:15:54.194Z,45.60
2023-03-11T00:18:22.879Z,45.70
2023-03-11T00:20:51.277Z,45.90
2023-03-11T00:23:19.159Z,45.00
2023-03-11T00:25:48.110Z,45.80
2023-03-11T00:28:17.153Z,46.20
2023-03-11T00:30:47.416Z,46.20
2023-03-11T00:33:16.972Z,46.70
2023-03-11T00:35:45.878Z,47.00
2023-03-11T00:38:19.492Z,46.40
2023-03-11T00:40:49.081Z,47.20
2023-03-11T00:43:17.942Z,47.50
2023-03-11T00:45:46.567Z,47.10
2023-03-11T00:48:15.078Z,47.40
2023-03-11T00:50:44.041Z,47.50
2023-03-11T00:53:12.506Z,47.70
2023-03-11T00:55:41.654Z,47.40
2023-03-11T00:58:13.090Z,48.70
2023-03-11T01:00:45.919Z,48.90
2023-03-11T01:03:14.264Z,48.20
2023-03-11T01:05:42.556Z,49.20
2023-03-11T01:08:10.584Z,49.30
2023-03-11T01:10:38.982Z,49.40
2023-03-11T01:13:07.333Z,48.70
2023-03-11T01:15:37.274Z,48.90
2023-03-11T01:18:07.262Z,48.30
2023-03-11T01:20:37.338Z,48.10
2023-03-11T01:23:07.169Z,47.60
2023-03-11T01:25:36.038Z,48.40
2023-03-11T01:28:04.640Z,47.40
2023-03-11T01:30:33.148Z,48.30
2023-03-11T01:33:02.258Z,48.10
2023-03-11T01:35:32.319Z,47.90
2023-03-11T01:38:00.703Z,47.90
2023-03-11T01:40:34.798Z,47.00
2023-03-11T01:43:28.986Z,47.70
2023-03-11T01:45:57.419Z,47.60
2023-03-11T01:48:27.980Z,47.40
2023-03-11T01:50:57.225Z,47.60
2023-03-11T01:53:26.312Z,47.90
2023-03-11T01:55:55.002Z,47.70
2023-03-11T01:58:31.571Z,47.80
2023-03-11T02:01:02.016Z,47.80
2023-03-11T02:03:34.146Z,47.90
2023-03-11T02:06:04.658Z,48.00
2023-03-11T02:08:33.923Z,48.10
2023-03-11T02:11:06.568Z,48.10
2023-03-11T02:13:36.064Z,47.60
2023-03-11T02:16:05.925Z,47.80
2023-03-11T02:18:34.848Z,47.90
2023-03-11T02:21:03.252Z,47.90
2023-03-11T02:23:37.303Z,48.20
2023-03-11T02:26:36.300Z,48.10
2023-03-11T02:29:07.075Z,47.90
2023-03-11T02:31:38.233Z,48.00
2023-03-11T02:34:12.494Z,48.20
2023-03-11T02:36:42.882Z,48.80
2023-03-11T02:39:14.494Z,48.90
2023-03-11T02:41:46.810Z,49.20
2023-03-11T02:44:17.196Z,49.20
2023-03-11T02:46:46.999Z,49.00
2023-03-11T02:49:16.810Z,49.10
2023-03-11T02:51:45.229Z,49.10
2023-03-11T02:54:13.794Z,50.00
2023-03-11T02:56:43.072Z,49.80
2023-03-11T02:59:11.257Z,49.90
2023-03-11T03:01:39.771Z,49.60
2023-03-11T03:04:07.864Z,49.00
2023-03-11T03:06:36.466Z,49.60
2023-03-11T03:09:05.174Z,49.50
2023-03-11T03:11:33.873Z,49.60
2023-03-11T03:14:02.421Z,49.20
2023-03-11T03:16:30.966Z,49.10
2023-03-11T03:18:59.103Z,49.20
2023-03-11T03:21:27.384Z,49.30
2023-03-11T03:23:57.024Z,48.70
2023-03-11T03:26:25.268Z,49.50
2023-03-11T03:28:53.799Z,49.00
2023-03-11T03:31:21.861Z,49.50
2023-03-11T03:33:50.180Z,49.60
2023-03-11T03:36:18.245Z,49.20
2023-03-11T03:38:56.273Z,49.90
2023-03-11T03:41:27.179Z,50.10
2023-03-11T03:43:56.001Z,49.70
2023-03-11T03:46:24.970Z,49.40
2023-03-11T03:48:57.151Z,49.50
2023-03-11T03:51:26.968Z,49.10
2023-03-11T03:54:05.038Z,49.60
2023-03-11T03:56:33.616Z,49.00
2023-03-11T03:59:02.887Z,49.60
2023-03-11T04:01:38.217Z,49.40
2023-03-11T04:04:06.538Z,49.20
2023-03-11T04:06:34.562Z,49.20
2023-03-11T04:09:06.081Z,49.30
2023-03-11T04:11:36.425Z,48.90
2023-03-11T04:14:06.665Z,48.70
2023-03-11T04:16:40.073Z,49.60
2023-03-11T04:19:13.094Z,49.80
2023-03-11T04:21:41.666Z,50.00
2023-03-11T04:24:10.505Z,49.80
2023-03-11T04:26:40.380Z,50.50
2023-03-11T04:29:19.071Z,49.80
2023-03-11T04:31:51.160Z,50.90
2023-03-11T04:34:19.162Z,50.50
2023-03-11T04:36:47.313Z,50.40
2023-03-11T04:39:17.953Z,50.40
2023-03-11T04:41:47.797Z,50.40
2023-03-11T04:44:20.381Z,50.20
2023-03-11T04:46:50.121Z,50.70
2023-03-11T04:49:18.783Z,50.00
2023-03-11T04:51:47.317Z,50.50
2023-03-11T04:54:18.400Z,50.40
2023-03-11T04:56:46.388Z,50.60
2023-03-11T04:59:14.557Z,50.60
2023-03-11T05:01:44.871Z,51.10
2023-03-11T05:04:13.558Z,50.40
2023-03-11T05:06:42.982Z,51.20
2023-03-11T05:09:12.046Z,51.20
2023-03-11T05:11:41.626Z,51.00
2023-03-11T05:14:11.783Z,51.50
2023-03-11T05:16:40.420Z,51.60
2023-03-11T05:19:08.786Z,51.30
2023-03-11T05:21:36.830Z,51.20
2023-03-11T05:24:05.331Z,51.30
2023-03-11T05:26:34.285Z,51.00
2023-03-11T05:29:02.539Z,51.40
2023-03-11T05:31:30.957Z,52.10
2023-03-11T05:33:59.358Z,51.10
2023-03-11T05:36:27.752Z,52.10
2023-03-11T05:38:55.749Z,52.10
2023-03-11T05:41:24.278Z,52.80
2023-03-11T05:43:53.228Z,52.80
2023-03-11T05:46:21.853Z,52.40
2023-03-11T05:48:50.589Z,52.70
2023-03-11T05:51:19.907Z,52.50
2023-03-11T05:53:49.318Z,52.20
2023-03-11T05:56:24.812Z,52.00
2023-03-11T05:58:57.486Z,52.10
2023-03-11T06:01:27.946Z,51.90
2023-03-11T06:03:55.999Z,51.60
2023-03-11T06:06:24.277Z,51.50
2023-03-11T06:08:52.379Z,51.40
2023-03-11T06:11:22.734Z,51.40
2023-03-11T06:13:54.002Z,51.30
2023-03-11T06:16:25.168Z,51.30
2023-03-11T06:18:55.305Z,51.30
2023-03-11T06:21:25.097Z,51.40
2023-03-11T06:23:53.595Z,50.90
2023-03-11T06:26:23.558Z,51.40
2023-03-11T06:28:53.514Z,51.40
2023-03-11T06:31:28.100Z,51.80
2023-03-11T06:34:02.277Z,51.70
2023-03-11T06:36:30.966Z,51.70
2023-03-11T06:39:00.101Z,51.80
2023-03-11T06:41:29.681Z,51.60
2023-03-11T06:43:58.966Z,51.50
2023-03-11T06:46:28.339Z,51.50
2023-03-11T06:48:58.087Z,51.60
2023-03-11T06:51:26.564Z,51.50
2023-03-11T06:53:55.012Z,51.30
2023-03-11T06:56:24.883Z,51.70
2023-03-11T06:59:01.087Z,51.30
2023-03-11T07:01:32.853Z,51.40
2023-03-11T07:04:03.928Z,51.50
2023-03-11T07:06:33.350Z,51.90
2023-03-11T07:09:09.518Z,51.70
2023-03-11T07:11:43.125Z,52.00
2023-03-11T07:14:16.651Z,52.10
2023-03-11T07:16:48.989Z,51.60
2023-03-11T07:19:25.660Z,52.40
2023-03-11T07:21:54.042Z,52.60
2023-03-11T07:24:22.275Z,52.80
2023-03-11T07:26:50.770Z,52.60
2023-03-11T07:29:19.152Z,52.70
2023-03-11T07:31:47.231Z,52.30
2023-03-11T07:34:16.632Z,52.90
2023-03-11T07:36:45.001Z,52.60
2023-03-11T07:39:19.005Z,52.70
2023-03-11T07:41:47.943Z,52.40
2023-03-11T07:44:17.433Z,52.60
2023-03-11T07:46:46.516Z,52.40
2023-03-11T07:49:15.154Z,52.20
2023-03-11T07:51:43.689Z,52.10
2023-03-11T07:54:12.892Z,52.20
2023-03-11T07:56:41.566Z,52.10
2023-03-11T07:59:10.151Z,52.00
2023-03-11T08:01:38.650Z,52.00
2023-03-11T08:04:11.358Z,52.00
2023-03-11T08:06:43.967Z,51.80
2023-03-11T08:09:12.836Z,51.80
2023-03-11T08:11:41.259Z,52.00
2023-03-11T08:14:09.485Z,51.80
2023-03-11T08:16:39.957Z,51.70
2023-03-11T08:19:08.476Z,51.70
2023-03-11T08:21:37.000Z,51.80
2023-03-11T08:24:07.048Z,51.90
2023-03-11T08:26:35.413Z,51.90
2023-03-11T08:29:03.342Z,51.90
2023-03-11T08:31:34.091Z,52.00
2023-03-11T08:34:05.604Z,51.90
2023-03-11T08:36:34.767Z,52.00
2023-03-11T08:39:03.566Z,51.90
2023-03-11T08:41:32.398Z,52.00
2023-03-11T08:44:00.957Z,52.00
2023-03-11T08:46:34.982Z,51.60
2023-03-11T08:49:04.356Z,51.70
2023-03-11T08:51:35.040Z,51.80
2023-03-11T08:54:04.799Z,51.90
2023-03-11T09:10:38.707Z,51.30
2023-03-11T09:13:07.424Z,51.60
2023-03-11T09:15:35.618Z,51.50
2023-03-11T09:18:03.896Z,51.50
2023-03-11T09:20:32.236Z,51.30
2023-03-11T09:23:00.132Z,51.30
2023-03-11T09:25:28.590Z,51.30
2023-03-11T09:27:56.479Z,51.30
2023-03-11T09:30:24.882Z,51.40
2023-03-11T09:32:53.047Z,51.30
2023-03-11T09:35:21.248Z,51.20
2023-03-11T09:37:49.507Z,51.20
2023-03-11T09:40:23.561Z,51.20
2023-03-11T09:43:04.124Z,51.10
2023-03-11T09:45:37.619Z,51.00
2023-03-11T09:48:35.266Z,50.90
2023-03-11T09:51:28.180Z,50.90
2023-03-11T09:54:04.249Z,51.00
2023-03-11T09:56:35.319Z,50.90
2023-03-11T09:59:08.486Z,50.70
2023-03-11T10:01:42.735Z,50.80
2023-03-11T10:04:32.385Z,50.90
2023-03-11T10:07:03.796Z,50.70
2023-03-11T10:09:50.072Z,50.60
2023-03-11T10:12:52.194Z,50.60
2023-03-11T10:15:28.444Z,50.70
2023-03-11T10:18:12.173Z,50.70
2023-03-11T10:21:01.276Z,50.60
2023-03-11T10:23:41.730Z,50.60
2023-03-11T10:26:15.770Z,50.60
2023-03-11T10:28:56.908Z,50.70
2023-03-11T10:31:35.382Z,50.80
2023-03-11T10:34:34.432Z,50.80
2023-03-11T10:37:17.281Z,50.80
2023-03-11T10:39:49.530Z,50.70
2023-03-11T10:42:25.209Z,50.80
2023-03-11T10:44:53.590Z,51.00
2023-03-11T10:47:24.507Z,51.00
2023-03-11T10:49:53.386Z,51.00
2023-03-11T10:52:21.853Z,50.80
2023-03-11T10:54:59.299Z,50.90
2023-03-11T10:57:27.667Z,51.00
2023-03-11T11:00:00.859Z,51.00
2023-03-11T11:02:34.391Z,51.10
2023-03-11T11:05:30.331Z,51.00
2023-03-11T11:08:24.473Z,51.00
2023-03-11T11:11:04.760Z,51.10
2023-03-11T11:13:34.954Z,51.20
2023-03-11T11:16:17.306Z,51.20
2023-03-11T11:19:08.712Z,51.20
2023-03-11T11:21:44.072Z,51.10
2023-03-11T11:24:29.963Z,51.00
2023-03-11T11:27:23.721Z,51.20
2023-03-11T11:30:18.974Z,51.00
2023-03-11T11:32:47.430Z,51.10
2023-03-11T11:35:16.516Z,51.10
2023-03-11T11:37:51.006Z,51.00
2023-03-11T11:40:31.994Z,51.00
2023-03-11T11:43:35.814Z,51.10
2023-03-11T11:46:11.755Z,51.00
2023-03-11T11:49:01.883Z,50.90
2023-03-11T11:51:39.269Z,50.80
2023-03-11T11:54:48.036Z,50.90
2023-03-11T11:57:18.614Z,50.90
2023-03-11T11:59:47.879Z,50.70
2023-03-11T12:02:37.983Z,50.60
2023-03-11T12:05:24.131Z,50.30
2023-03-11T12:07:58.521Z,50.30
2023-03-11T12:10:34.892Z,50.20
2023-03-11T12:13:31.307Z,50.30
2023-03-11T12:16:30.585Z,50.30
2023-03-11T12:19:17.741Z,50.20
2023-03-11T12:22:07.782Z,50.20
2023-03-11T12:25:04.812Z,50.20
2023-03-11T12:27:48.725Z,50.30
2023-03-11T12:30:39.748Z,50.20
2023-03-11T12:33:33.361Z,50.10
2023-03-11T12:36:02.444Z,50.10
2023-03-11T12:38:36.600Z,50.10
2023-03-11T12:41:28.225Z,50.20
2023-03-11T12:44:04.892Z,50.10
2023-03-11T12:46:54.942Z,50.00
2023-03-11T12:49:27.365Z,50.20
2023-03-11T12:52:13.990Z,50.00
2023-03-11T12:54:47.560Z,50.00
2023-03-11T12:57:18.697Z,50.20
2023-03-11T13:00:05.280Z,50.10
2023-03-11T13:02:42.864Z,50.00
2023-03-11T13:05:26.242Z,50.00
2023-03-11T13:08:09.712Z,50.10
2023-03-11T13:10:41.268Z,50.00
2023-03-11T13:13:31.291Z,49.90
2023-03-11T13:16:23.585Z,50.00
2023-03-11T13:18:51.898Z,50.00
2023-03-11T13:21:29.448Z,49.90
2023-03-11T13:24:19.485Z,49.80
2023-03-11T13:27:04.520Z,49.70
2023-03-11T13:30:02.545Z,49.70
2023-03-11T13:33:01.821Z,49.80
2023-03-11T13:35:42.320Z,49.70
2023-03-11T13:38:58.631Z,49.80
2023-03-11T13:41:36.538Z,49.70
2023-03-11T13:44:26.899Z,49.90
2023-03-11T13:47:18.625Z,49.90
2023-03-11T13:49:46.875Z,50.00
2023-03-11T13:52:28.296Z,50.00
2023-03-11T13:55:04.043Z,49.90
2023-03-11T13:57:37.575Z,49.80
2023-03-11T14:00:17.854Z,49.70
2023-03-11T14:02:49.204Z,49.70
2023-03-11T14:05:21.527Z,49.80
2023-03-11T14:07:50.029Z,49.80
2023-03-11T14:10:23.482Z,49.90
2023-03-11T14:12:52.261Z,49.80
2023-03-11T14:15:24.286Z,49.80
2023-03-11T14:17:54.121Z,49.90
2023-03-11T14:20:24.217Z,49.90
2023-03-11T14:22:55.018Z,50.00
2023-03-11T14:25:29.505Z,50.00
2023-03-11T14:28:03.557Z,50.00
2023-03-11T14:30:34.138Z,50.00
2023-03-11T14:33:06.491Z,50.00
2023-03-11T14:35:35.026Z,50.10
2023-03-11T14:38:02.883Z,50.10
2023-03-11T14:40:37.721Z,49.90
2023-03-11T14:43:08.406Z,50.00
2023-03-11T14:45:39.553Z,49.80
2023-03-11T14:48:34.598Z,49.70
2023-03-11T14:51:06.374Z,49.60
2023-03-11T14:53:50.366Z,49.70
2023-03-11T14:56:26.073Z,49.60
2023-03-11T14:59:24.409Z,49.50
2023-03-11T15:01:54.279Z,49.50
2023-03-11T15:04:42.094Z,49.30
2023-03-11T15:07:10.460Z,49.40
2023-03-11T15:09:40.479Z,49.40
2023-03-11T15:12:28.969Z,49.40
2023-03-11T15:14:57.262Z,49.20
2023-03-11T15:17:36.149Z,49.20
2023-03-11T15:20:06.186Z,49.10
2023-03-11T15:22:40.195Z,49.10
2023-03-11T15:25:19.904Z,48.90
2023-03-11T15:27:48.279Z,48.70
2023-03-11T15:30:19.654Z,48.50
2023-03-11T15:32:48.344Z,48.50
2023-03-11T15:35:25.928Z,48.40
2023-03-11T15:38:20.891Z,48.30
2023-03-11T15:41:01.179Z,48.20
2023-03-11T15:43:35.744Z,48.10
2023-03-11T15:46:04.698Z,48.10
2023-03-11T15:48:32.983Z,48.20
2023-03-11T15:51:01.685Z,48.30
2023-03-11T15:53:31.087Z,48.20
2023-03-11T15:56:11.016Z,48.20
2023-03-11T15:58:39.395Z,48.20
2023-03-11T16:01:07.644Z,48.20
2023-03-11T16:03:35.642Z,48.40
2023-03-11T16:06:03.976Z,48.30
2023-03-11T16:08:32.253Z,48.20
2023-03-11T16:11:00.278Z,48.20
2023-03-11T16:13:28.734Z,48.40
2023-03-11T16:15:56.992Z,48.20
2023-03-11T16:18:25.173Z,48.20
2023-03-11T16:20:54.884Z,48.20
2023-03-11T16:23:28.200Z,48.20
2023-03-11T16:26:02.818Z,48.10
2023-03-11T16:28:31.232Z,48.00
2023-03-11T16:30:59.523Z,48.00
2023-03-11T16:33:27.510Z,48.10
2023-03-11T16:35:55.992Z,48.00
2023-03-11T16:38:24.338Z,47.80
2023-03-11T16:41:02.418Z,47.80
2023-03-11T16:43:32.389Z,47.80
2023-03-11T16:46:00.675Z,47.80
2023-03-11T16:48:28.865Z,47.90
2023-03-11T16:50:57.227Z,47.80
2023-03-11T16:53:25.529Z,47.80
2023-03-11T16:55:54.571Z,47.70
2023-03-11T16:58:23.266Z,47.60
2023-03-11T17:00:51.407Z,47.60
2023-03-11T17:03:21.740Z,47.70
2023-03-11T17:05:50.811Z,47.60
2023-03-11T17:08:19.126Z,47.50
2023-03-11T17:10:47.850Z,47.50
2023-03-11T17:13:18.840Z,47.50
2023-03-11T17:16:01.366Z,47.80
2023-03-11T17:18:30.116Z,47.80
2023-03-11T17:20:58.222Z,48.20
2023-03-11T17:23:26.557Z,47.70
2023-03-11T17:25:57.546Z,47.60
2023-03-11T17:28:25.769Z,47.60
2023-03-11T17:30:53.952Z,47.70
2023-03-11T17:33:22.325Z,47.70
2023-03-11T17:35:50.275Z,47.70
2023-03-11T17:38:18.547Z,47.70
2023-03-11T17:40:46.704Z,47.80
2023-03-11T17:43:15.175Z,47.90
2023-03-11T17:45:43.116Z,47.90
2023-03-11T17:48:11.375Z,47.90
2023-03-11T17:50:40.071Z,47.80
2023-03-11T17:53:08.661Z,48.10
2023-03-11T17:55:40.550Z,48.00
2023-03-11T17:58:09.328Z,47.80
2023-03-11T18:00:37.892Z,47.80
2023-03-11T18:03:06.018Z,47.90
2023-03-11T18:05:34.418Z,48.00
2023-03-11T18:08:02.315Z,47.70
2023-03-11T18:10:30.861Z,48.60
2023-03-11T18:12:59.067Z,48.10
2023-03-11T18:15:27.313Z,48.20
2023-03-11T18:17:55.662Z,48.10
2023-03-11T18:20:23.552Z,48.00
2023-03-11T18:22:52.395Z,48.00
2023-03-11T18:25:20.733Z,48.00
2023-03-11T18:27:48.562Z,48.10
2023-03-11T18:30:16.861Z,48.10
2023-03-11T18:32:44.996Z,48.50
2023-03-11T18:35:13.092Z,47.90
2023-03-11T18:37:41.728Z,48.50
2023-03-11T18:40:10.735Z,48.40
2023-03-11T18:42:39.104Z,48.60
2023-03-11T18:45:07.249Z,48.40
2023-03-11T18:47:36.269Z,48.50
2023-03-11T18:50:05.479Z,48.70
2023-03-11T18:52:33.802Z,48.80
2023-03-11T18:55:02.066Z,48.90
2023-03-11T18:57:30.123Z,48.90
2023-03-11T18:59:58.370Z,48.90
2023-03-11T19:02:26.678Z,48.70
2023-03-11T19:04:54.847Z,48.90
2023-03-11T19:07:23.216Z,48.80
2023-03-11T19:09:51.335Z,48.70
2023-03-11T19:12:19.510Z,48.80
2023-03-11T19:14:47.733Z,48.90
2023-03-11T19:17:15.608Z,48.60
2023-03-11T19:19:44.025Z,48.80
2023-03-11T19:22:12.446Z,48.80
2023-03-11T19:24:40.942Z,48.80
2023-03-11T19:27:08.906Z,48.80
2023-03-11T19:29:37.012Z,48.40
2023-03-11T19:32:05.556Z,48.50
2023-03-11T19:34:33.943Z,48.70
2023-03-11T19:37:01.835Z,48.70
2023-03-11T19:39:30.080Z,48.50
2023-03-11T19:41:58.020Z,48.60
2023-03-11T19:44:26.370Z,48.50
2023-03-11T19:46:54.409Z,48.40
2023-03-11T19:49:22.661Z,48.70
2023-03-11T19:51:50.967Z,48.60
2023-03-11T19:54:20.056Z,48.60
2023-03-11T19:56:48.999Z,48.70
2023-03-11T19:59:17.427Z,48.50
2023-03-11T20:01:46.863Z,48.60
2023-03-11T20:04:15.467Z,48.30
2023-03-11T20:06:44.274Z,48.50
2023-03-11T20:09:13.190Z,48.60
2023-03-11T20:11:42.151Z,48.60
2023-03-11T20:14:11.297Z,48.40
2023-03-11T20:16:39.922Z,48.10
2023-03-11T20:19:08.546Z,48.50
2023-03-11T20:21:37.018Z,48.50
2023-03-11T20:24:05.102Z,48.60
2023-03-11T20:26:33.469Z,48.50
2023-03-11T20:29:01.546Z,48.50
2023-03-11T20:31:30.528Z,48.60
2023-03-11T20:33:59.506Z,48.60
2023-03-11T20:36:30.630Z,48.60
2023-03-11T20:38:59.217Z,48.50
2023-03-11T20:41:28.574Z,48.50
2023-03-11T20:43:58.165Z,48.50
2023-03-11T20:46:26.623Z,48.60
2023-03-11T20:48:55.256Z,48.70
2023-03-11T20:51:24.153Z,48.70
2023-03-11T20:53:53.031Z,48.70
2023-03-11T20:56:24.880Z,48.50
2023-03-11T20:58:54.564Z,48.50
2023-03-11T21:01:31.526Z,48.90
2023-03-11T21:04:02.190Z,48.50
2023-03-11T21:06:33.241Z,48.80
2023-03-11T21:09:05.222Z,48.70
2023-03-11T21:11:34.411Z,49.00
2023-03-11T21:14:03.274Z,48.90
2023-03-11T21:16:31.870Z,48.80
2023-03-11T21:19:00.224Z,49.00
2023-03-11T21:21:28.623Z,49.10
2023-03-11T21:23:56.999Z,49.20
2023-03-11T21:26:24.997Z,49.10
2023-03-11T21:28:53.385Z,49.40
2023-03-11T21:31:23.219Z,49.30
2023-03-11T21:33:56.688Z,49.50
2023-03-11T21:36:25.426Z,48.80
2023-03-11T21:38:53.798Z,49.20
2023-03-11T21:41:25.753Z,49.10
2023-03-11T21:43:55.483Z,49.50
2023-03-11T21:46:27.013Z,49.50
2023-03-11T21:48:55.770Z,49.00
2023-03-11T21:52:27.654Z,48.70
2023-03-11T21:54:56.217Z,49.40
2023-03-11T21:57:24.306Z,49.40
2023-03-11T21:59:52.605Z,49.30
2023-03-11T22:02:21.140Z,49.80
2023-03-11T22:04:49.557Z,49.80
2023-03-11T22:07:17.907Z,49.40
2023-03-11T22:09:46.343Z,49.80
2023-03-11T22:12:14.756Z,49.20
2023-03-11T22:14:42.811Z,49.90
2023-03-11T22:17:11.129Z,49.40
2023-03-11T22:19:39.126Z,49.50
2023-03-11T22:22:07.544Z,49.80
2023-03-11T22:24:35.609Z,49.90
2023-03-11T22:27:03.752Z,49.80
2023-03-11T22:29:32.123Z,50.00
2023-03-11T22:32:00.390Z,49.60
2023-03-11T22:34:28.799Z,50.00
2023-03-11T22:36:56.756Z,49.10
2023-03-11T22:39:25.004Z,50.20
2023-03-11T22:41:53.188Z,49.80
2023-03-11T22:44:21.329Z,49.90
2023-03-11T22:46:49.830Z,49.60
2023-03-11T22:49:18.005Z,49.60
2023-03-11T22:51:46.650Z,49.70
2023-03-11T22:54:15.204Z,50.20
2023-03-11T22:56:43.704Z,50.00
2023-03-11T22:59:12.104Z,50.00
2023-03-11T23:01:40.042Z,50.00
2023-03-11T23:04:08.313Z,49.90
2023-03-11T23:06:36.371Z,50.40
2023-03-11T23:09:05.822Z,50.20
2023-03-11T23:11:33.949Z,50.10
2023-03-11T23:14:02.292Z,50.20
2023-03-11T23:16:30.642Z,49.90
2023-03-11T23:18:58.903Z,50.10
2023-03-11T23:21:32.927Z,50.10
2023-03-11T23:24:03.249Z,50.10
2023-03-11T23:26:33.057Z,50.10
2023-03-11T23:29:01.889Z,50.00
2023-03-11T23:31:30.397Z,49.80
2023-03-11T23:33:59.154Z,49.90
2023-03-11T23:36:27.624Z,49.70
2023-03-11T23:38:55.987Z,50.00
2023-03-11T23:41:24.028Z,50.20
2023-03-11T23:43:52.491Z,49.70
2023-03-11T23:46:20.662Z,50.00
2023-03-11T23:48:48.783Z,49.70
2023-03-11T23:51:17.580Z,50.20
2023-03-11T23:53:46.016Z,50.30
2023-03-11T23:56:17.093Z,51.00
2023-03-11T23:58:46.066Z,50.10
